createdAt,value
2023-07-24T00:02:24.871Z,3.10
2023-07-24T00:04:51.580Z,2.20
2023-07-24T00:07:18.598Z,1.75
2023-07-24T00:09:45.291Z,2.47
2023-07-24T00:12:11.998Z,2.28
2023-07-24T00:14:38.730Z,2.28
2023-07-24T00:17:05.771Z,2.42
2023-07-24T00:19:32.542Z,2.30
2023-07-24T00:21:59.152Z,2.40
2023-07-24T00:24:25.805Z,2.80
2023-07-24T00:26:52.405Z,2.58
2023-07-24T00:29:19.294Z,2.60
2023-07-24T00:31:45.931Z,2.10
2023-07-24T00:34:12.584Z,2.20
2023-07-24T00:36:39.621Z,1.92
2023-07-24T00:39:06.348Z,2.28
2023-07-24T00:41:34.170Z,2.30
2023-07-24T00:44:00.955Z,2.20
2023-07-24T00:46:31.468Z,2.40
2023-07-24T00:48:59.157Z,2.08
2023-07-24T00:51:28.697Z,2.53
2023-07-24T00:53:57.357Z,2.40
2023-07-24T00:56:24.365Z,2.28
2023-07-24T00:58:51.202Z,2.88
2023-07-24T01:01:20.928Z,2.72
2023-07-24T01:03:47.621Z,2.72
2023-07-24T01:06:14.232Z,2.13
2023-07-24T01:08:40.875Z,2.88
2023-07-24T01:11:17.042Z,2.30
2023-07-24T01:13:53.182Z,3.58
2023-07-24T01:16:20.550Z,2.45
2023-07-24T01:18:50.260Z,2.05
2023-07-24T01:21:21.614Z,2.40
2023-07-24T01:24:00.145Z,1.80
2023-07-24T01:26:27.430Z,2.28
2023-07-24T01:28:54.521Z,2.67
2023-07-24T01:31:21.383Z,1.63
2023-07-24T01:33:48.083Z,2.17
2023-07-24T01:36:15.780Z,2.13
2023-07-24T01:38:43.000Z,2.22
2023-07-24T01:41:10.144Z,1.98
2023-07-24T01:43:36.991Z,2.17
2023-07-24T01:46:03.849Z,2.30
2023-07-24T01:48:30.578Z,1.80
2023-07-24T01:50:57.207Z,1.83
2023-07-24T01:53:23.898Z,2.45
2023-07-24T01:55:50.618Z,2.45
2023-07-24T01:58:17.267Z,1.95
2023-07-24T02:00:44.552Z,1.90
2023-07-24T02:03:11.376Z,2.05
2023-07-24T02:05:38.160Z,2.22
2023-07-24T02:08:05.002Z,3.03
2023-07-24T02:10:31.764Z,2.60
2023-07-24T02:12:58.424Z,2.22
2023-07-24T02:15:25.005Z,3.25
2023-07-24T02:17:51.686Z,1.85
2023-07-24T02:20:18.435Z,2.13
2023-07-24T02:22:45.066Z,2.33
2023-07-24T02:25:11.672Z,2.28
2023-07-24T02:27:38.431Z,2.42
2023-07-24T02:30:05.612Z,2.55
2023-07-24T02:32:33.509Z,2.30
2023-07-24T02:35:00.272Z,3.20
2023-07-24T02:37:26.958Z,2.53
2023-07-24T02:39:54.429Z,2.05
2023-07-24T02:42:21.161Z,2.42
2023-07-24T02:44:47.788Z,2.63
2023-07-24T02:47:14.408Z,3.38
2023-07-24T02:49:41.365Z,2.97
2023-07-24T02:52:08.090Z,2.80
2023-07-24T02:54:34.744Z,3.00
2023-07-24T02:57:01.431Z,2.85
2023-07-24T02:59:28.113Z,2.60
2023-07-24T03:01:54.759Z,2.47
2023-07-24T03:04:21.335Z,3.35
2023-07-24T03:06:48.118Z,2.85
2023-07-24T03:09:14.840Z,3.47
2023-07-24T03:11:41.485Z,3.65
2023-07-24T03:14:08.364Z,2.75
2023-07-24T03:16:35.024Z,3.78
2023-07-24T03:19:01.782Z,3.45
2023-07-24T03:21:28.531Z,3.38
2023-07-24T03:23:55.216Z,3.25
2023-07-24T03:26:21.819Z,3.30
2023-07-24T03:28:48.643Z,4.15
2023-07-24T03:31:15.427Z,3.30
2023-07-24T03:33:42.135Z,3.53
2023-07-24T03:36:08.789Z,3.50
2023-07-24T03:38:35.949Z,4.53
2023-07-24T03:41:02.619Z,3.60
2023-07-24T03:43:29.247Z,3.67
2023-07-24T03:45:55.896Z,2.63
2023-07-24T03:48:22.658Z,3.40
2023-07-24T03:50:52.013Z,3.88
2023-07-24T03:53:18.659Z,3.58
2023-07-24T03:55:45.722Z,3.92
2023-07-24T03:58:12.457Z,4.22
2023-07-24T04:00:39.175Z,3.90
2023-07-24T04:03:05.948Z,4.10
2023-07-24T04:05:32.770Z,3.78
2023-07-24T04:07:59.789Z,3.58
2023-07-24T04:10:27.132Z,2.97
2023-07-24T04:12:53.824Z,2.92
2023-07-24T04:15:20.450Z,3.05
2023-07-24T04:17:47.300Z,3.53
2023-07-24T04:20:13.921Z,3.35
2023-07-24T04:22:40.996Z,3.08
2023-07-24T04:25:08.011Z,3.25
2023-07-24T04:27:34.701Z,2.92
2023-07-24T04:30:01.390Z,3.00
2023-07-24T04:32:28.898Z,4.10
2023-07-24T04:34:55.634Z,3.60
2023-07-24T04:37:22.295Z,4.03
2023-07-24T04:39:49.057Z,3.08
2023-07-24T04:42:15.908Z,3.60
2023-07-24T04:44:42.583Z,3.90
2023-07-24T04:47:09.232Z,3.33
2023-07-24T04:49:35.837Z,3.03
2023-07-24T04:52:02.527Z,3.42
2023-07-24T04:54:29.743Z,3.95
2023-07-24T04:56:56.498Z,3.08
2023-07-24T04:59:23.270Z,3.85
2023-07-24T05:01:49.944Z,3.97
2023-07-24T05:04:16.741Z,3.60
2023-07-24T05:06:43.506Z,3.22
2023-07-24T05:09:10.216Z,3.25
2023-07-24T05:11:37.987Z,3.40
2023-07-24T05:14:04.809Z,4.45
2023-07-24T05:16:32.753Z,2.83
2023-07-24T05:18:59.784Z,2.75
2023-07-24T05:21:27.010Z,3.70
2023-07-24T05:23:53.708Z,4.00
2023-07-24T05:26:20.331Z,3.95
2023-07-24T05:28:47.297Z,2.72
2023-07-24T05:31:13.909Z,3.05
2023-07-24T05:33:40.675Z,3.58
2023-07-24T05:36:07.332Z,3.20
2023-07-24T05:38:33.968Z,3.20
2023-07-24T05:41:03.699Z,2.72
2023-07-24T05:43:31.648Z,2.97
2023-07-24T05:45:58.947Z,4.20
2023-07-24T05:48:26.232Z,3.08
2023-07-24T05:50:52.990Z,3.47
2023-07-24T05:53:19.741Z,4.65
2023-07-24T05:55:46.398Z,3.85
2023-07-24T05:58:13.396Z,3.88
2023-07-24T06:00:40.057Z,3.97
2023-07-24T06:03:08.562Z,4.35
2023-07-24T06:05:35.958Z,4.82
2023-07-24T06:08:02.735Z,2.83
2023-07-24T06:10:29.585Z,4.03
2023-07-24T06:12:56.360Z,3.25
2023-07-24T06:15:23.049Z,3.33
2023-07-24T06:17:51.816Z,3.67
2023-07-24T06:20:20.886Z,3.40
2023-07-24T06:22:47.581Z,4.00
2023-07-24T06:25:14.175Z,3.63
2023-07-24T06:27:40.837Z,4.90
2023-07-24T06:30:14.836Z,3.65
2023-07-24T06:32:43.398Z,4.18
2023-07-24T06:35:10.137Z,4.10
2023-07-24T06:37:36.877Z,4.90
2023-07-24T06:40:03.984Z,4.70
2023-07-24T06:42:30.806Z,4.70
2023-07-24T06:44:57.462Z,4.47
2023-07-24T06:47:24.104Z,5.50
2023-07-24T06:49:51.152Z,5.88
2023-07-24T06:52:17.807Z,5.80
2023-07-24T06:54:44.654Z,6.45
2023-07-24T06:57:11.361Z,6.30
2023-07-24T06:59:38.238Z,4.70
2023-07-24T07:02:05.121Z,4.93
2023-07-24T07:04:31.818Z,4.13
2023-07-24T07:06:58.608Z,4.53
2023-07-24T07:09:25.504Z,3.92
2023-07-24T07:11:52.129Z,4.50
2023-07-24T07:14:18.751Z,4.22
2023-07-24T07:16:45.781Z,4.60
2023-07-24T07:19:12.469Z,3.42
2023-07-24T07:21:39.067Z,4.75
2023-07-24T07:24:06.122Z,5.22
2023-07-24T07:26:33.103Z,3.90
2023-07-24T07:29:00.793Z,4.32
2023-07-24T07:31:27.525Z,4.15
2023-07-24T07:33:54.286Z,2.95
2023-07-24T07:36:23.129Z,4.88
2023-07-24T07:38:50.290Z,3.60
2023-07-24T07:41:17.030Z,4.80
2023-07-24T07:43:43.738Z,3.58
2023-07-24T07:46:10.335Z,5.15
2023-07-24T07:48:37.021Z,4.15
2023-07-24T07:51:03.911Z,3.00
2023-07-24T07:53:30.645Z,5.43
2023-07-24T07:56:03.166Z,4.70
2023-07-24T07:58:30.006Z,5.15
2023-07-24T08:00:56.855Z,3.53
2023-07-24T08:03:23.811Z,3.15
2023-07-24T08:05:50.660Z,4.03
2023-07-24T08:08:17.311Z,3.88
2023-07-24T08:10:44.019Z,3.10
2023-07-24T08:13:10.713Z,2.83
2023-07-24T08:15:38.677Z,3.58
2023-07-24T08:20:39.727Z,3.80
2023-07-24T08:23:06.420Z,3.90
2023-07-24T08:25:33.055Z,3.35
2023-07-24T08:28:05.848Z,3.35
2023-07-24T08:30:35.336Z,2.88
2023-07-24T08:33:02.266Z,3.08
2023-07-24T08:35:29.312Z,3.53
2023-07-24T08:37:56.011Z,3.58
2023-07-24T08:40:22.928Z,4.05
2023-07-24T08:42:51.683Z,3.38
2023-07-24T08:45:19.578Z,3.47
2023-07-24T08:50:14.560Z,3.83
2023-07-24T08:55:09.030Z,3.97
2023-07-24T08:57:36.348Z,3.72
2023-07-24T09:00:06.265Z,3.53
2023-07-24T09:02:35.047Z,3.15
2023-07-24T09:05:02.215Z,3.53
2023-07-24T09:07:31.059Z,3.33
2023-07-24T09:09:57.925Z,4.72
2023-07-24T09:12:25.260Z,3.40
2023-07-24T09:15:04.036Z,3.72
2023-07-24T09:17:30.807Z,3.13
2023-07-24T09:20:03.145Z,3.03
2023-07-24T09:22:29.944Z,2.65
2023-07-24T09:24:58.354Z,2.70
2023-07-24T09:27:32.358Z,2.38
2023-07-24T09:29:59.731Z,4.53
2023-07-24T09:32:28.323Z,2.22
2023-07-24T09:34:55.873Z,2.63
2023-07-24T09:37:31.855Z,2.53
2023-07-24T09:40:00.328Z,2.92
2023-07-24T09:42:33.593Z,2.78
2023-07-24T09:45:01.139Z,2.60
2023-07-24T09:47:51.152Z,2.55
2023-07-24T09:50:14.579Z,3.05
2023-07-24T09:52:43.143Z,2.38
2023-07-24T09:55:20.577Z,2.60
2023-07-24T09:57:47.993Z,2.33
2023-07-24T10:00:15.472Z,3.35
2023-07-24T10:02:43.062Z,2.92
2023-07-24T10:05:09.955Z,2.85
2023-07-24T10:07:37.381Z,3.15
2023-07-24T10:10:04.291Z,3.20
2023-07-24T10:12:32.437Z,2.78
2023-07-24T10:15:00.866Z,2.53
2023-07-24T10:17:39.094Z,3.53
2023-07-24T10:20:07.930Z,2.75
2023-07-24T10:22:34.779Z,2.90
2023-07-24T10:25:01.640Z,3.30
2023-07-24T10:27:29.460Z,2.10
2023-07-24T10:30:14.760Z,3.28
2023-07-24T10:32:54.182Z,3.35
2023-07-24T10:35:24.051Z,2.30
2023-07-24T10:38:00.475Z,2.28
2023-07-24T10:40:27.305Z,2.97
2023-07-24T10:43:21.966Z,2.83
2023-07-24T10:45:54.972Z,2.53
2023-07-24T10:48:23.467Z,3.08
2023-07-24T10:50:53.750Z,2.80
2023-07-24T10:53:23.730Z,2.28
2023-07-24T10:55:52.182Z,2.60
2023-07-24T10:58:19.006Z,2.28
2023-07-24T11:00:46.888Z,2.28
2023-07-24T11:03:14.586Z,1.38
2023-07-24T11:05:42.816Z,1.90
2023-07-24T11:08:17.718Z,2.45
2023-07-24T11:10:56.385Z,2.25
2023-07-24T11:13:25.526Z,2.83
2023-07-24T11:15:53.691Z,3.30
2023-07-24T11:18:34.332Z,2.50
2023-07-24T11:21:04.410Z,1.70
2023-07-24T11:23:31.010Z,2.78
2023-07-24T11:25:57.724Z,2.08
2023-07-24T11:28:24.394Z,3.85
2023-07-24T11:30:52.778Z,3.08
2023-07-24T11:33:20.421Z,4.97
2023-07-24T11:35:47.521Z,3.33
2023-07-24T11:38:15.030Z,2.60
2023-07-24T11:40:45.653Z,2.50
2023-07-24T11:43:22.716Z,3.67
2023-07-24T11:45:53.467Z,4.10
2023-07-24T11:48:25.621Z,3.83
2023-07-24T11:50:55.920Z,2.88
2023-07-24T11:53:32.983Z,2.63
2023-07-24T11:56:04.864Z,3.20
2023-07-24T11:58:36.115Z,4.22
2023-07-24T12:01:02.825Z,3.28
2023-07-24T12:03:30.918Z,3.30
2023-07-24T12:05:57.950Z,4.50
2023-07-24T12:08:32.666Z,3.05
2023-07-24T12:10:59.642Z,2.72
2023-07-24T12:13:26.359Z,3.53
2023-07-24T12:15:53.028Z,3.80
2023-07-24T12:18:19.754Z,2.78
2023-07-24T12:20:46.576Z,2.95
2023-07-24T12:23:13.184Z,4.47
2023-07-24T12:25:39.867Z,3.72
2023-07-24T12:28:06.479Z,3.17
2023-07-24T12:30:33.060Z,5.82
2023-07-24T12:33:00.005Z,3.92
2023-07-24T12:35:26.685Z,3.67
2023-07-24T12:37:53.390Z,3.53
2023-07-24T12:40:19.966Z,3.25
2023-07-24T12:42:46.674Z,2.83
2023-07-24T12:45:13.372Z,3.03
2023-07-24T12:47:39.988Z,4.30
2023-07-24T12:50:08.494Z,3.33
2023-07-24T12:52:35.669Z,3.42
2023-07-24T12:55:03.139Z,3.55
2023-07-24T12:57:30.357Z,3.33
2023-07-24T12:59:57.237Z,4.30
2023-07-24T13:02:24.086Z,3.85
2023-07-24T13:04:50.708Z,4.15
2023-07-24T13:07:17.417Z,2.83
2023-07-24T13:09:44.128Z,3.00
2023-07-24T13:12:11.435Z,3.75
2023-07-24T13:14:40.218Z,3.35
2023-07-24T13:17:09.445Z,2.95
2023-07-24T13:19:36.137Z,3.42
2023-07-24T13:22:02.851Z,4.47
2023-07-24T13:24:29.617Z,3.22
2023-07-24T13:26:56.234Z,4.43
2023-07-24T13:29:25.516Z,4.07
2023-07-24T13:31:55.956Z,4.28
2023-07-24T13:34:25.133Z,4.13
2023-07-24T13:36:51.990Z,3.53
2023-07-24T13:39:18.706Z,3.53
2023-07-24T13:41:45.362Z,3.65
2023-07-24T13:44:12.074Z,4.07
2023-07-24T13:46:40.374Z,5.20
2023-07-24T13:49:07.992Z,4.28
2023-07-24T13:51:34.658Z,4.47
2023-07-24T13:54:02.994Z,3.60
2023-07-24T13:56:32.431Z,3.20
2023-07-24T13:58:59.507Z,3.65
2023-07-24T14:01:26.421Z,3.97
2023-07-24T14:03:53.477Z,3.50
2023-07-24T14:06:20.223Z,3.60
2023-07-24T14:08:46.830Z,4.80
2023-07-24T14:11:13.484Z,4.43
2023-07-24T14:13:40.188Z,5.28
2023-07-24T14:16:06.844Z,4.40
2023-07-24T14:18:33.548Z,4.82
2023-07-24T14:21:00.838Z,4.55
2023-07-24T14:23:27.813Z,5.53
2023-07-24T14:25:54.675Z,5.15
2023-07-24T14:28:21.612Z,4.20
2023-07-24T14:30:48.536Z,5.43
2023-07-24T14:33:15.304Z,5.28
2023-07-24T14:35:42.080Z,5.65
2023-07-24T14:38:08.779Z,3.55
2023-07-24T14:40:35.770Z,5.05
2023-07-24T14:43:05.558Z,4.18
2023-07-24T14:45:34.596Z,4.15
2023-07-24T14:48:01.456Z,4.45
2023-07-24T14:50:28.330Z,2.90
2023-07-24T14:52:55.014Z,4.40
2023-07-24T14:55:22.682Z,3.88
2023-07-24T14:57:49.937Z,3.88
2023-07-24T15:00:17.555Z,3.90
2023-07-24T15:05:11.945Z,3.50
2023-07-24T15:07:38.998Z,3.63
2023-07-24T15:10:07.016Z,3.42
2023-07-24T15:15:00.200Z,3.25
2023-07-24T15:17:26.900Z,4.88
2023-07-24T15:19:53.587Z,4.30
2023-07-24T15:22:20.257Z,2.88
2023-07-24T15:24:47.003Z,3.08
2023-07-24T15:27:13.779Z,2.97
2023-07-24T15:29:40.527Z,3.25
2023-07-24T15:32:07.957Z,3.40
2023-07-24T15:34:36.624Z,3.15
2023-07-24T15:37:05.790Z,3.38
2023-07-24T15:39:32.405Z,3.53
2023-07-24T15:41:59.154Z,3.78
2023-07-24T15:44:25.847Z,3.22
2023-07-24T15:46:52.796Z,3.08
2023-07-24T15:49:19.584Z,3.75
2023-07-24T15:51:46.346Z,2.42
2023-07-24T15:54:13.009Z,2.78
2023-07-24T15:56:40.455Z,3.03
2023-07-24T15:59:07.611Z,3.10
2023-07-24T16:01:34.806Z,2.72
2023-07-24T16:04:01.833Z,2.60
2023-07-24T16:06:28.928Z,4.10
2023-07-24T16:08:55.655Z,2.58
2023-07-24T16:11:22.388Z,1.73
2023-07-24T16:13:49.011Z,2.60
2023-07-24T16:16:16.026Z,2.30
2023-07-24T16:18:42.793Z,2.60
2023-07-24T16:21:09.493Z,3.17
2023-07-24T16:23:36.289Z,2.78
2023-07-24T16:26:03.043Z,2.80
2023-07-24T16:28:29.666Z,2.90
2023-07-24T16:30:59.056Z,2.20
2023-07-24T16:33:26.061Z,2.35
2023-07-24T16:35:53.902Z,2.95
2023-07-24T16:38:20.592Z,2.97
2023-07-24T16:40:47.421Z,3.03
2023-07-24T16:43:14.193Z,2.00
2023-07-24T16:45:40.937Z,2.47
2023-07-24T16:48:07.785Z,2.78
2023-07-24T16:50:36.555Z,2.00
2023-07-24T16:53:04.445Z,1.75
2023-07-24T16:55:32.141Z,2.25
2023-07-24T16:57:58.809Z,1.95
2023-07-24T17:00:25.923Z,2.85
2023-07-24T17:02:52.654Z,1.85
2023-07-24T17:05:19.501Z,1.65
2023-07-24T17:07:46.236Z,2.33
2023-07-24T17:10:13.045Z,2.10
2023-07-24T17:12:39.785Z,1.65
2023-07-24T17:15:06.939Z,1.42
2023-07-24T17:17:34.111Z,2.30
2023-07-24T17:20:01.051Z,1.35
2023-07-24T17:22:27.767Z,1.63
2023-07-24T17:24:54.490Z,1.48
2023-07-24T17:27:21.277Z,1.50
2023-07-24T17:29:49.087Z,1.90
2023-07-24T17:32:19.609Z,1.70
2023-07-24T17:34:46.241Z,3.03
2023-07-24T17:37:21.212Z,2.00
2023-07-24T17:39:55.478Z,1.65
2023-07-24T17:42:22.208Z,2.83
2023-07-24T17:44:48.988Z,3.55
2023-07-24T17:47:15.649Z,3.00
2023-07-24T17:49:47.615Z,5.70
2023-07-24T17:52:25.131Z,3.78
2023-07-24T17:54:51.847Z,4.25
2023-07-24T17:57:18.493Z,3.45
2023-07-24T17:59:45.346Z,3.70
2023-07-24T18:02:12.365Z,2.58
2023-07-24T18:04:39.339Z,3.53
2023-07-24T18:07:06.229Z,4.18
2023-07-24T18:09:32.853Z,4.30
2023-07-24T18:11:59.700Z,2.63
2023-07-24T18:14:26.389Z,3.13
2023-07-24T18:16:53.147Z,3.70
2023-07-24T18:19:19.847Z,3.38
2023-07-24T18:21:46.535Z,3.30
2023-07-24T18:24:13.676Z,2.85
2023-07-24T18:26:40.363Z,2.13
2023-07-24T18:29:06.946Z,2.72
2023-07-24T18:31:33.686Z,3.25
2023-07-24T18:34:00.741Z,1.95
2023-07-24T18:36:27.430Z,2.55
2023-07-24T18:38:54.043Z,2.85
2023-07-24T18:41:20.699Z,3.22
2023-07-24T18:43:47.310Z,3.03
2023-07-24T18:46:14.075Z,3.78
2023-07-24T18:48:40.824Z,2.60
2023-07-24T18:51:09.492Z,3.30
2023-07-24T18:53:36.148Z,2.45
2023-07-24T18:56:02.855Z,2.70
2023-07-24T18:58:29.592Z,2.38
2023-07-24T19:00:56.333Z,2.70
2023-07-24T19:03:23.459Z,3.97
2023-07-24T19:05:50.206Z,3.40
2023-07-24T19:08:16.854Z,2.80
2023-07-24T19:10:43.561Z,2.90
2023-07-24T19:13:10.280Z,2.75
2023-07-24T19:15:36.952Z,2.30
2023-07-24T19:18:04.195Z,2.33
2023-07-24T19:20:31.769Z,2.53
2023-07-24T19:22:58.709Z,4.10
2023-07-24T19:25:25.390Z,3.25
2023-07-24T19:27:52.079Z,4.20
2023-07-24T19:30:18.771Z,3.92
2023-07-24T19:32:46.534Z,4.40
2023-07-24T19:35:13.269Z,4.88
2023-07-24T19:37:41.720Z,5.47
2023-07-24T19:40:09.107Z,3.75
2023-07-24T19:42:35.860Z,4.15
2023-07-24T19:45:02.479Z,4.13
2023-07-24T19:47:29.183Z,5.80
2023-07-24T19:49:55.851Z,4.72
2023-07-24T19:52:23.938Z,5.03
2023-07-24T19:54:52.013Z,3.85
2023-07-24T19:57:18.834Z,3.70
2023-07-24T19:59:45.548Z,4.13
2023-07-24T20:02:12.585Z,4.40
2023-07-24T20:04:39.334Z,5.60
2023-07-24T20:07:06.529Z,3.95
2023-07-24T20:09:33.176Z,5.20
2023-07-24T20:11:59.808Z,4.63
2023-07-24T20:14:26.506Z,4.85
2023-07-24T20:16:53.250Z,3.78
2023-07-24T20:19:20.055Z,5.25
2023-07-24T20:21:46.734Z,4.10
2023-07-24T20:24:14.001Z,5.50
2023-07-24T20:26:40.951Z,4.93
2023-07-24T20:29:07.888Z,6.22
2023-07-24T20:31:34.815Z,4.25
2023-07-24T20:34:01.719Z,4.38
2023-07-24T20:36:28.395Z,4.65
2023-07-24T20:38:55.114Z,5.57
2023-07-24T20:41:21.745Z,5.13
2023-07-24T20:43:48.388Z,5.93
2023-07-24T20:46:16.735Z,5.30
2023-07-24T20:48:44.081Z,5.68
2023-07-24T20:51:18.910Z,5.88
2023-07-24T20:53:45.822Z,5.22
2023-07-24T20:56:12.768Z,6.15
2023-07-24T20:58:40.110Z,5.47
2023-07-24T21:01:08.441Z,4.88
2023-07-24T21:03:35.292Z,5.55
2023-07-24T21:06:02.283Z,4.57
2023-07-24T21:08:28.927Z,5.22
2023-07-24T21:10:55.558Z,4.85
2023-07-24T21:13:22.565Z,4.97
2023-07-24T21:15:51.420Z,6.03
2023-07-24T21:18:19.243Z,5.28
2023-07-24T21:20:47.108Z,5.93
2023-07-24T21:23:15.003Z,4.68
2023-07-24T21:26:01.922Z,6.78
2023-07-24T21:28:28.692Z,5.47
2023-07-24T21:30:55.440Z,5.90
2023-07-24T21:33:22.222Z,6.22
2023-07-24T21:36:02.084Z,5.45
2023-07-24T21:38:29.045Z,4.72
2023-07-24T21:40:55.911Z,5.85
2023-07-24T21:43:23.069Z,6.63
2023-07-24T21:45:50.669Z,6.68
2023-07-24T21:48:17.908Z,6.47
2023-07-24T21:50:48.361Z,6.15
2023-07-24T21:53:15.070Z,7.40
2023-07-24T21:55:41.860Z,8.68
2023-07-24T21:58:08.653Z,6.20
2023-07-24T22:00:36.130Z,7.25
2023-07-24T22:03:03.034Z,8.57
2023-07-24T22:05:29.855Z,7.75
2023-07-24T22:07:56.685Z,8.02
2023-07-24T22:10:23.735Z,10.27
2023-07-24T22:12:50.934Z,10.13
2023-07-24T22:15:17.612Z,9.57
2023-07-24T22:17:44.570Z,9.52
2023-07-24T22:20:17.138Z,9.65
2023-07-24T22:22:53.908Z,9.10
2023-07-24T22:25:20.660Z,9.20
2023-07-24T22:27:47.717Z,9.38
2023-07-24T22:30:15.633Z,10.45
2023-07-24T22:32:42.346Z,10.43
2023-07-24T22:35:09.356Z,11.63
2023-07-24T22:37:35.970Z,8.98
2023-07-24T22:40:02.711Z,9.63
2023-07-24T22:42:29.380Z,8.02
2023-07-24T22:44:55.971Z,8.50
2023-07-24T22:47:22.945Z,8.30
2023-07-24T22:49:49.767Z,7.97
2023-07-24T22:52:16.403Z,7.00
2023-07-24T22:54:43.077Z,4.35
2023-07-24T22:57:09.740Z,4.03
2023-07-24T22:59:36.410Z,4.55
2023-07-24T23:02:03.151Z,3.13
2023-07-24T23:04:29.735Z,2.20
2023-07-24T23:06:56.850Z,2.28
2023-07-24T23:09:24.138Z,3.13
2023-07-24T23:11:50.795Z,3.92
2023-07-24T23:14:17.533Z,2.65
2023-07-24T23:16:44.399Z,2.50
2023-07-24T23:19:11.395Z,3.22
2023-07-24T23:21:38.021Z,2.45
2023-07-24T23:24:05.393Z,1.98
2023-07-24T23:26:32.011Z,3.08
2023-07-24T23:28:59.667Z,2.53
2023-07-24T23:31:26.447Z,1.80
2023-07-24T23:33:53.235Z,1.67
2023-07-24T23:36:19.971Z,2.05
2023-07-24T23:38:46.739Z,1.95
2023-07-24T23:41:14.192Z,1.60
2023-07-24T23:43:40.858Z,2.78
2023-07-24T23:46:12.457Z,2.50
2023-07-24T23:48:40.054Z,1.20
2023-07-24T23:51:17.395Z,2.00
2023-07-24T23:53:44.745Z,1.27
2023-07-24T23:56:11.466Z,2.15
2023-07-24T23:58:38.268Z,1.52
